createdAt,value
2019-02-18T00:01:56.669Z,99.90
2019-02-18T00:05:41.314Z,99.90
2019-02-18T00:09:25.947Z,99.90
2019-02-18T00:13:03.585Z,99.90
2019-02-18T00:16:48.202Z,99.90
2019-02-18T00:24:23.116Z,99.90
2019-02-18T00:28:07.738Z,99.90
2019-02-18T00:31:52.658Z,99.90
2019-02-18T00:35:37.290Z,99.90
2019-02-18T00:39:21.926Z,99.90
2019-02-18T00:43:06.531Z,99.90
2019-02-18T00:46:51.179Z,99.90
2019-02-18T00:50:35.818Z,99.90
2019-02-18T00:54:20.415Z,99.90
2019-02-18T00:58:05.022Z,99.90
2019-02-18T01:01:49.650Z,99.90
2019-02-18T01:05:34.584Z,99.90
2019-02-18T01:09:19.184Z,99.90
2019-02-18T01:12:58.269Z,99.90
2019-02-18T01:16:43.157Z,99.90
2019-02-18T01:24:18.276Z,99.90
2019-02-18T01:28:02.975Z,99.90
2019-02-18T01:31:47.930Z,99.90
2019-02-18T01:35:32.784Z,99.90
2019-02-18T01:39:17.431Z,99.90
2019-02-18T01:43:20.893Z,99.90
2019-02-18T01:47:05.507Z,99.90
2019-02-18T01:50:50.142Z,99.90
2019-02-18T01:54:34.754Z,99.90
2019-02-18T01:58:19.384Z,99.90
2019-02-18T02:02:03.988Z,99.90
2019-02-18T02:05:48.581Z,99.90
2019-02-18T02:09:33.221Z,99.90
2019-02-18T02:13:33.486Z,99.90
2019-02-18T02:17:18.108Z,99.90
2019-02-18T02:21:02.743Z,99.90
2019-02-18T02:24:47.335Z,99.90
2019-02-18T02:28:32.254Z,99.90
2019-02-18T02:32:16.845Z,99.90
2019-02-18T02:36:01.451Z,99.90
2019-02-18T02:39:46.086Z,99.90
2019-02-18T02:43:49.789Z,99.90
2019-02-18T02:47:34.735Z,99.90
2019-02-18T02:51:19.368Z,99.90
2019-02-18T02:55:04.002Z,99.90
2019-02-18T02:58:48.938Z,99.90
2019-02-18T03:02:33.548Z,99.90
2019-02-18T03:06:18.471Z,99.90
2019-02-18T03:10:03.085Z,99.90
2019-02-18T03:13:40.256Z,99.90
2019-02-18T03:17:24.857Z,99.90
2019-02-18T03:21:09.455Z,99.90
2019-02-18T03:25:32.228Z,99.90
2019-02-18T03:29:54.990Z,99.90
2019-02-18T03:34:00.720Z,99.90
2019-02-18T03:37:45.613Z,99.90
2019-02-18T03:41:30.210Z,99.90
2019-02-18T03:45:15.164Z,99.90
2019-02-18T03:49:00.149Z,99.90
2019-02-18T03:52:44.751Z,99.90
2019-02-18T03:56:29.361Z,99.90
2019-02-18T04:00:14.134Z,99.90
2019-02-18T04:03:58.782Z,99.90
2019-02-18T04:07:43.447Z,99.90
2019-02-18T04:11:20.239Z,99.90
2019-02-18T04:15:05.181Z,99.90
2019-02-18T04:18:49.824Z,99.90
2019-02-18T04:22:34.470Z,99.90
2019-02-18T04:26:19.127Z,99.90
2019-02-18T04:30:03.749Z,99.90
2019-02-18T04:33:48.374Z,99.90
2019-02-18T04:37:33.024Z,99.90
2019-02-18T04:41:17.607Z,99.90
2019-02-18T04:45:02.219Z,99.90
2019-02-18T04:48:46.854Z,99.90
2019-02-18T04:52:31.494Z,99.90
2019-02-18T04:56:16.134Z,99.90
2019-02-18T05:00:00.876Z,99.90
2019-02-18T05:03:45.546Z,99.90
2019-02-18T05:07:30.162Z,99.90
2019-02-18T05:11:14.773Z,99.90
2019-02-18T05:14:52.468Z,99.90
2019-02-18T05:18:37.062Z,99.90
2019-02-18T05:22:21.701Z,99.90
2019-02-18T05:29:56.647Z,99.90
2019-02-18T05:33:41.237Z,99.90
2019-02-18T05:37:25.889Z,99.90
2019-02-18T05:41:10.541Z,99.90
2019-02-18T05:44:55.162Z,99.90
2019-02-18T05:48:58.963Z,99.90
2019-02-18T05:52:43.821Z,99.90
2019-02-18T06:00:18.781Z,99.90
2019-02-18T06:04:03.424Z,99.90
2019-02-18T06:07:48.025Z,99.90
2019-02-18T06:15:19.436Z,99.90
2019-02-18T06:19:04.054Z,99.90
2019-02-18T06:22:48.701Z,99.90
2019-02-18T06:26:33.302Z,99.90
2019-02-18T06:30:18.207Z,99.90
2019-02-18T06:34:02.848Z,99.90
2019-02-18T06:37:47.468Z,99.90
2019-02-18T06:41:32.728Z,99.90
2019-02-18T06:45:36.593Z,99.90
2019-02-18T06:53:27.223Z,99.90
2019-02-18T06:57:30.656Z,99.90
2019-02-18T07:01:34.131Z,99.90
2019-02-18T07:05:37.544Z,99.90
2019-02-18T07:09:50.461Z,99.90
2019-02-18T07:13:20.424Z,99.90
2019-02-18T07:17:05.064Z,99.90
2019-02-18T07:20:49.686Z,99.90
2019-02-18T07:24:34.404Z,99.90
2019-02-18T07:28:19.035Z,99.90
2019-02-18T07:32:03.996Z,99.90
2019-02-18T07:35:48.622Z,99.90
2019-02-18T07:39:33.237Z,99.90
2019-02-18T07:43:17.866Z,99.90
2019-02-18T07:50:52.724Z,99.90
2019-02-18T07:54:37.307Z,99.90
2019-02-18T07:58:21.932Z,99.90
2019-02-18T08:02:25.775Z,99.90
2019-02-18T08:06:10.435Z,99.90
2019-02-18T08:13:50.894Z,99.90
2019-02-18T08:17:35.543Z,99.90
2019-02-18T08:25:10.449Z,99.90
2019-02-18T08:32:46.665Z,99.90
2019-02-18T08:36:31.318Z,99.90
2019-02-18T08:48:10.670Z,99.90
2019-02-18T08:51:55.689Z,99.90
2019-02-18T08:55:40.643Z,99.90
2019-02-18T09:06:46.869Z,99.90
2019-02-18T09:10:33.865Z,99.90
2019-02-18T09:14:11.225Z,99.90
2019-02-18T09:17:55.834Z,99.90
2019-02-18T09:29:20.137Z,99.90
2019-02-18T09:33:04.812Z,99.90
2019-02-18T09:36:49.467Z,99.90
2019-02-18T09:40:44.214Z,99.90
2019-02-18T09:48:24.078Z,99.90
2019-02-18T09:56:12.245Z,99.90
2019-02-18T09:59:56.889Z,97.10
2019-02-18T10:03:41.517Z,94.40
2019-02-18T10:07:26.186Z,92.60
2019-02-18T10:11:03.433Z,88.50
2019-02-18T10:14:48.357Z,80.40
2019-02-18T10:18:32.978Z,72.80
2019-02-18T10:22:17.597Z,69.50
2019-02-18T10:25:43.176Z,66.10
2019-02-18T10:29:27.826Z,65.30
2019-02-18T10:33:12.484Z,61.20
2019-02-18T10:36:57.119Z,57.90
2019-02-18T10:40:42.024Z,56.50
2019-02-18T10:44:07.859Z,55.70
2019-02-18T10:47:52.489Z,55.90
2019-02-18T10:51:37.437Z,56.00
2019-02-18T10:55:04.733Z,54.40
2019-02-18T10:58:49.349Z,54.60
2019-02-18T11:02:34.294Z,54.60
2019-02-18T11:06:18.977Z,54.40
2019-02-18T11:10:04.264Z,54.10
2019-02-18T11:13:41.476Z,52.40
2019-02-18T11:17:26.135Z,52.80
2019-02-18T11:21:10.789Z,50.70
2019-02-18T11:24:55.414Z,49.80
2019-02-18T11:28:40.366Z,49.70
2019-02-18T11:32:25.632Z,48.40
2019-02-18T11:36:12.032Z,47.90
2019-02-18T11:39:56.754Z,45.60
2019-02-18T11:43:41.391Z,45.60
2019-02-18T11:47:26.034Z,43.90
2019-02-18T11:51:10.672Z,43.40
2019-02-18T11:58:46.029Z,41.40
2019-02-18T12:06:21.082Z,41.80
2019-02-18T12:10:06.728Z,40.10
2019-02-18T12:13:43.636Z,40.00
2019-02-18T12:17:28.373Z,40.80
2019-02-18T12:21:13.004Z,39.00
2019-02-18T12:24:57.668Z,38.20
2019-02-18T12:28:45.029Z,38.90
2019-02-18T12:32:29.076Z,37.70
2019-02-18T12:36:13.725Z,37.20
2019-02-18T12:47:20.256Z,35.50
2019-02-18T12:51:05.433Z,35.20
2019-02-18T12:54:51.176Z,35.20
2019-02-18T12:58:36.258Z,32.80
2019-02-18T13:02:23.849Z,33.30
2019-02-18T13:06:27.635Z,31.90
2019-02-18T13:10:12.664Z,32.00
2019-02-18T13:13:39.953Z,30.80
2019-02-18T13:20:55.387Z,29.60
2019-02-18T13:24:40.298Z,29.10
2019-02-18T13:32:28.475Z,30.40
2019-02-18T13:36:34.677Z,31.70
2019-02-18T13:40:19.657Z,32.00
2019-02-18T13:43:45.431Z,30.70
2019-02-18T13:47:30.332Z,29.70
2019-02-18T13:55:06.904Z,27.00
2019-02-18T13:58:51.674Z,26.80
2019-02-18T14:06:26.963Z,25.80
2019-02-18T14:10:11.575Z,25.50
2019-02-18T14:13:49.321Z,25.50
2019-02-18T14:17:34.692Z,25.70
2019-02-18T14:21:19.431Z,26.10
2019-02-18T14:25:04.098Z,25.50
2019-02-18T14:28:50.494Z,24.80
2019-02-18T14:36:25.790Z,24.80
2019-02-18T14:43:42.498Z,25.00
2019-02-18T14:47:27.155Z,24.50
2019-02-18T14:55:15.768Z,24.40
2019-02-18T14:58:41.354Z,24.50
2019-02-18T15:02:26.053Z,24.60
2019-02-18T15:06:10.698Z,24.40
2019-02-18T15:09:55.623Z,24.20
2019-02-18T15:13:32.374Z,24.50
2019-02-18T15:17:17.085Z,24.30
2019-02-18T15:21:20.577Z,25.20
2019-02-18T15:25:05.821Z,25.30
2019-02-18T15:28:31.363Z,26.10
2019-02-18T15:36:06.399Z,26.40
2019-02-18T15:39:51.234Z,26.40
2019-02-18T15:43:35.860Z,26.00
2019-02-18T15:47:20.805Z,26.10
2019-02-18T15:50:47.056Z,26.30
2019-02-18T15:54:32.000Z,26.60
2019-02-18T15:57:59.633Z,27.20
2019-02-18T16:01:46.158Z,28.40
2019-02-18T16:05:23.844Z,29.80
2019-02-18T16:13:04.781Z,33.00
2019-02-18T16:16:30.619Z,33.80
2019-02-18T16:20:15.351Z,34.30
2019-02-18T16:24:00.008Z,36.60
2019-02-18T16:27:45.232Z,38.30
2019-02-18T16:35:19.710Z,41.20
2019-02-18T16:39:04.634Z,42.50
2019-02-18T16:42:49.286Z,44.10
2019-02-18T16:50:24.394Z,46.10
2019-02-18T16:54:09.024Z,44.70
2019-02-18T17:05:27.398Z,44.10
2019-02-18T17:13:08.195Z,44.50
2019-02-18T17:16:50.007Z,44.80
2019-02-18T17:20:34.645Z,45.10
2019-02-18T17:24:21.843Z,46.60
2019-02-18T17:31:58.667Z,48.20
2019-02-18T17:44:05.444Z,49.60
2019-02-18T17:47:50.085Z,49.40
2019-02-18T17:51:15.639Z,50.30
2019-02-18T17:54:52.417Z,50.50
2019-02-18T18:02:40.513Z,52.30
2019-02-18T18:06:25.178Z,53.90
2019-02-18T18:17:51.765Z,57.00
2019-02-18T18:29:17.634Z,64.00
2019-02-18T18:33:21.072Z,69.40
2019-02-18T18:37:05.740Z,75.70
2019-02-18T18:44:40.780Z,86.00
2019-02-18T18:48:25.661Z,92.00
2019-02-18T18:55:41.496Z,96.30
2019-02-18T18:59:26.154Z,97.30
2019-02-18T19:03:12.483Z,98.70
2019-02-18T19:06:57.119Z,99.90
2019-02-18T19:10:41.782Z,99.90
2019-02-18T19:26:16.367Z,99.90
2019-02-18T19:30:00.955Z,99.90
2019-02-18T19:37:35.466Z,99.90
2019-02-18T19:45:04.741Z,99.90
2019-02-18T19:52:20.735Z,99.90
2019-02-18T19:56:05.360Z,99.90
2019-02-18T19:59:50.908Z,99.90
2019-02-18T20:03:35.568Z,99.90
2019-02-18T20:07:01.559Z,99.90
2019-02-18T20:10:46.346Z,99.90
2019-02-18T20:14:31.821Z,99.90
2019-02-18T20:18:16.482Z,99.90
2019-02-18T20:22:01.494Z,99.90
2019-02-18T20:29:43.524Z,99.90
2019-02-18T20:37:01.024Z,99.90
2019-02-18T20:48:45.958Z,99.90
2019-02-18T20:52:23.772Z,99.90
2019-02-18T20:56:08.419Z,99.90
2019-02-18T21:03:24.528Z,99.90
2019-02-18T21:10:53.568Z,99.90
2019-02-18T21:14:38.168Z,99.90
2019-02-18T21:26:06.170Z,99.90
2019-02-18T21:45:11.762Z,99.90
2019-02-18T21:52:52.911Z,99.90
2019-02-18T22:00:41.055Z,99.90
2019-02-18T22:04:44.707Z,99.90
2019-02-18T22:23:50.138Z,99.90
2019-02-18T22:27:53.596Z,99.90
2019-02-18T22:31:38.312Z,99.90
2019-02-18T22:35:24.627Z,99.90
2019-02-18T22:39:09.746Z,99.90
2019-02-18T22:46:44.567Z,99.90
2019-02-18T22:50:29.179Z,99.90
2019-02-18T22:54:06.787Z,99.90
2019-02-18T23:05:44.932Z,99.90
2019-02-18T23:09:29.882Z,99.90
2019-02-18T23:13:14.779Z,99.90
2019-02-18T23:24:40.151Z,99.90
2019-02-18T23:28:25.071Z,99.90
2019-02-18T23:32:09.965Z,99.90
2019-02-18T23:35:54.570Z,99.90
2019-02-18T23:39:39.187Z,99.90
2019-02-18T23:43:23.835Z,99.90
2019-02-18T23:47:08.673Z,99.90
2019-02-18T23:50:53.312Z,99.90
2019-02-18T23:54:30.525Z,99.90
2019-02-18T23:58:15.155Z,99.90
